Time;durP1;ratioP1;P1;durP2;ratioP2;P2;SDS_P1;SDS_P2;PMS_P1;PMS_P2;Temp;Humidity;BMP_temperature;BMP_pressure;BME280_temperature;BME280_humidity;BME280_pressure;Samples;Min_cycle;Max_cycle;Signal;HPM_P1;HPM_P2
2023/04/10 00:01:46;;;;;;;62.80;27.47;;;5.60;99.90;;;;;;5203204;28;21056;-47
2023/04/10 00:04:17;;;;;;;52.37;26.40;;;5.60;99.90;;;;;;5202356;28;20269;-46
2023/04/10 00:06:48;;;;;;;44.33;24.70;;;5.60;99.90;;;;;;5204870;28;20187;-46
2023/04/10 00:09:18;;;;;;;57.83;28.67;;;5.60;99.90;;;;;;5203676;28;20223;-46
2023/04/10 00:11:49;;;;;;;44.43;26.30;;;5.50;99.90;;;;;;5202691;28;20567;-46
2023/04/10 00:14:22;;;;;;;53.13;27.87;;;5.50;99.90;;;;;;5201195;28;20199;-47
2023/04/10 00:16:52;;;;;;;57.53;28.10;;;5.50;99.90;;;;;;5206780;28;20233;-46
2023/04/10 00:19:23;;;;;;;52.50;26.27;;;5.50;99.90;;;;;;5203569;28;20442;-46
2023/04/10 00:21:54;;;;;;;54.23;28.00;;;5.40;99.90;;;;;;5190095;28;20656;-47
2023/04/10 00:24:25;;;;;;;56.17;27.10;;;5.50;99.90;;;;;;5203498;28;20261;-47
2023/04/10 00:26:56;;;;;;;48.70;27.80;;;5.40;99.90;;;;;;5207038;28;20461;-49
2023/04/10 00:29:27;;;;;;;53.83;27.20;;;5.40;99.90;;;;;;5201883;28;20210;-51
2023/04/10 00:31:57;;;;;;;51.93;27.33;;;5.50;99.90;;;;;;5206996;28;20194;-48
2023/04/10 00:34:28;;;;;;;54.67;28.80;;;5.40;99.90;;;;;;5207554;28;20221;-48
2023/04/10 00:36:58;;;;;;;45.17;27.60;;;5.40;99.90;;;;;;5207504;28;20178;-47
2023/04/10 00:39:29;;;;;;;58.83;29.63;;;5.40;99.90;;;;;;5208388;28;20186;-47
2023/04/10 00:42:01;;;;;;;57.53;28.33;;;5.40;99.90;;;;;;5207232;28;20219;-47
2023/04/10 00:44:36;;;;;;;56.10;28.50;;;5.30;99.90;;;;;;5203013;28;20202;-49
2023/04/10 00:47:06;;;;;;;52.37;29.10;;;5.20;99.90;;;;;;5208000;28;21290;-47
2023/04/10 00:49:37;;;;;;;51.30;27.00;;;5.20;99.90;;;;;;5205230;28;20444;-47
2023/04/10 00:52:08;;;;;;;50.13;26.03;;;5.20;99.90;;;;;;5204915;28;20205;-47
2023/04/10 00:54:39;;;;;;;51.30;27.33;;;5.20;99.90;;;;;;5204696;28;20227;-47
2023/04/10 00:57:10;;;;;;;51.13;26.70;;;5.20;99.90;;;;;;5203785;28;20440;-47
2023/04/10 00:59:41;;;;;;;53.00;25.47;;;5.20;99.90;;;;;;5202448;28;20441;-47
2023/04/10 01:02:11;;;;;;;43.60;24.20;;;5.30;99.90;;;;;;5200272;28;20460;-47
2023/04/10 01:04:43;;;;;;;48.97;24.17;;;5.20;99.90;;;;;;5207114;28;20187;-46
2023/04/10 01:07:53;;;;;;;43.87;24.13;;;5.20;99.90;;;;;;5207738;28;20190;-47
2023/04/10 01:10:53;;;;;;;43.00;23.90;;;5.20;99.90;;;;;;5208269;28;20522;-51
2023/04/10 01:13:34;;;;;;;35.07;19.77;;;5.20;99.90;;;;;;5204709;28;20476;-47
2023/04/10 01:16:19;;;;;;;32.03;19.40;;;5.10;99.90;;;;;;5206997;28;20427;-48
2023/04/10 01:19:08;;;;;;;42.57;19.33;;;5.10;99.90;;;;;;5206017;28;20468;-46
2023/04/10 01:21:40;;;;;;;35.20;18.47;;;5.00;99.90;;;;;;5208616;28;20472;-46
2023/04/10 01:24:34;;;;;;;46.20;22.77;;;5.00;99.90;;;;;;5211071;28;20520;-47
2023/04/10 01:27:19;;;;;;;31.87;20.33;;;5.00;99.90;;;;;;5208747;28;20448;-47
2023/04/10 01:29:55;;;;;;;30.30;19.00;;;4.90;99.90;;;;;;5208891;28;20435;-47
2023/04/10 01:32:28;;;;;;;33.90;20.20;;;4.90;99.90;;;;;;5205393;28;20488;-47
2023/04/10 01:35:01;;;;;;;36.93;21.67;;;5.00;99.90;;;;;;5188879;28;20512;-45
2023/04/10 01:37:36;;;;;;;38.40;21.67;;;4.90;99.90;;;;;;5212550;28;20815;-47
2023/04/10 01:40:13;;;;;;;36.97;19.87;;;4.90;99.90;;;;;;5209014;28;20780;-47
2023/04/10 01:42:49;;;;;;;36.63;19.27;;;4.90;99.90;;;;;;5212442;28;20539;-46
2023/04/10 01:45:26;;;;;;;28.33;17.20;;;4.90;99.90;;;;;;5209701;28;20511;-46
2023/04/10 01:47:57;;;;;;;34.13;17.13;;;4.90;99.90;;;;;;5210214;28;20444;-48
2023/04/10 01:50:29;;;;;;;29.40;18.30;;;4.90;99.90;;;;;;5209399;28;20539;-47
2023/04/10 01:53:02;;;;;;;32.47;17.90;;;4.80;99.90;;;;;;5211193;28;20853;-47
2023/04/10 01:55:35;;;;;;;35.20;18.83;;;4.80;99.90;;;;;;5208078;28;20495;-46
2023/04/10 01:58:06;;;;;;;39.57;19.30;;;4.90;99.90;;;;;;5210538;28;20452;-46
2023/04/10 02:00:41;;;;;;;27.67;18.07;;;4.80;99.90;;;;;;5207122;28;20440;-46
2023/04/10 02:03:12;;;;;;;34.07;18.77;;;4.80;99.90;;;;;;5208419;28;20473;-51
2023/04/10 02:06:13;;;;;;;34.10;19.00;;;4.80;99.90;;;;;;5206837;28;20449;-46
2023/04/10 02:09:08;;;;;;;33.50;17.47;;;4.70;99.90;;;;;;5207427;28;20189;-46
2023/04/10 02:11:57;;;;;;;32.87;16.17;;;4.80;99.90;;;;;;5209531;28;20453;-46
2023/04/10 02:14:31;;;;;;;32.27;17.47;;;4.70;99.90;;;;;;5204856;28;20477;-45
2023/04/10 02:17:02;;;;;;;41.77;16.57;;;4.70;99.90;;;;;;5205998;28;20441;-46
2023/04/10 02:19:34;;;;;;;28.63;18.00;;;4.70;99.90;;;;;;5208870;28;20434;-49
2023/04/10 02:22:05;;;;;;;32.27;18.00;;;4.70;99.90;;;;;;5202710;28;20457;-47
2023/04/10 02:24:36;;;;;;;33.53;17.27;;;4.70;99.90;;;;;;5208338;28;20446;-46
2023/04/10 02:27:06;;;;;;;34.00;17.03;;;4.70;99.90;;;;;;5208068;28;20496;-45
2023/04/10 02:29:37;;;;;;;32.07;16.40;;;4.70;99.90;;;;;;5211500;28;20260;-48
2023/04/10 02:32:08;;;;;;;25.30;14.70;;;4.70;99.90;;;;;;5202233;28;20300;-48
2023/04/10 02:34:38;;;;;;;30.33;15.20;;;4.70;99.90;;;;;;5205933;28;20224;-47
2023/04/10 02:37:09;;;;;;;19.87;14.40;;;4.70;99.90;;;;;;5205444;28;20213;-46
2023/04/10 02:39:40;;;;;;;32.43;17.43;;;4.70;99.90;;;;;;5206277;28;20265;-48
2023/04/10 02:42:11;;;;;;;30.50;17.87;;;4.60;99.90;;;;;;5205847;28;20349;-52
2023/04/10 02:44:41;;;;;;;38.80;20.57;;;4.60;99.90;;;;;;5209691;28;20477;-50
2023/04/10 02:47:12;;;;;;;33.60;18.40;;;4.60;99.90;;;;;;5207452;28;20327;-47
2023/04/10 02:49:43;;;;;;;46.10;20.40;;;4.60;99.90;;;;;;5210578;28;20181;-45
2023/04/10 02:52:13;;;;;;;29.23;19.07;;;4.60;99.90;;;;;;5204539;28;20242;-46
2023/04/10 02:54:44;;;;;;;32.10;17.07;;;4.60;99.90;;;;;;5206955;28;20292;-46
2023/04/10 02:57:15;;;;;;;31.27;17.23;;;4.60;99.90;;;;;;5205416;28;20198;-50
2023/04/10 02:59:50;;;;;;;27.53;17.23;;;4.60;99.90;;;;;;5210477;28;20189;-48
2023/04/10 03:02:20;;;;;;;35.00;19.40;;;4.60;99.90;;;;;;5206639;28;20548;-46
2023/04/10 03:04:52;;;;;;;35.40;18.93;;;4.60;99.90;;;;;;5207606;28;20519;-46
2023/04/10 03:07:22;;;;;;;34.40;19.03;;;4.70;99.90;;;;;;5208066;28;20177;-46
2023/04/10 03:09:53;;;;;;;39.13;19.73;;;4.70;99.90;;;;;;5209554;28;20440;-45
2023/04/10 03:12:24;;;;;;;30.90;18.17;;;4.60;99.90;;;;;;5202489;28;20217;-47
2023/04/10 03:14:55;;;;;;;44.53;20.77;;;4.60;99.90;;;;;;5206506;28;20193;-47
2023/04/10 03:17:25;;;;;;;39.40;19.17;;;4.60;99.90;;;;;;5207698;28;20197;-46
2023/04/10 03:19:56;;;;;;;40.60;20.27;;;4.60;99.90;;;;;;5207561;28;20429;-48
2023/04/10 03:22:29;;;;;;;33.87;19.63;;;4.60;99.90;;;;;;5208013;28;20632;-48
2023/04/10 03:25:00;;;;;;;30.33;19.37;;;4.50;99.90;;;;;;5210314;28;20513;-44
2023/04/10 03:27:33;;;;;;;36.60;20.17;;;4.50;99.90;;;;;;5202296;28;20432;-45
2023/04/10 03:30:05;;;;;;;35.73;21.53;;;4.50;99.90;;;;;;5209637;28;20524;-46
2023/04/10 03:32:35;;;;;;;33.13;20.97;;;4.50;99.90;;;;;;5208243;28;20533;-46
2023/04/10 03:35:06;;;;;;;35.70;21.40;;;4.50;99.90;;;;;;5203664;28;20519;-46
2023/04/10 03:37:37;;;;;;;42.37;21.13;;;4.50;99.90;;;;;;5207995;28;20266;-45
2023/04/10 03:40:09;;;;;;;39.70;21.37;;;4.50;99.90;;;;;;5205130;28;20510;-46
2023/04/10 03:42:40;;;;;;;36.67;23.70;;;4.40;99.90;;;;;;5204065;28;20523;-46
2023/04/10 03:45:11;;;;;;;42.63;23.33;;;4.40;99.90;;;;;;5203990;28;20565;-46
2023/04/10 03:47:41;;;;;;;33.30;20.77;;;4.30;99.90;;;;;;5204143;28;20184;-46
2023/04/10 03:50:12;;;;;;;40.30;22.47;;;4.30;99.90;;;;;;5206724;28;20538;-46
2023/04/10 03:52:43;;;;;;;50.13;23.80;;;4.30;99.90;;;;;;5208486;28;20205;-47
2023/04/10 03:55:17;;;;;;;34.90;22.17;;;4.30;99.90;;;;;;5208386;28;20207;-46
2023/04/10 03:57:48;;;;;;;40.87;23.00;;;4.30;99.90;;;;;;5188807;28;20430;-48
2023/04/10 04:00:20;;;;;;;40.13;23.07;;;4.30;99.90;;;;;;5203394;28;21064;-46
2023/04/10 04:02:50;;;;;;;44.03;21.47;;;4.30;99.90;;;;;;5209301;28;20871;-46
2023/04/10 04:05:21;;;;;;;41.13;22.67;;;4.20;99.90;;;;;;5203026;28;20562;-47
2023/04/10 04:07:52;;;;;;;32.13;21.13;;;4.20;99.90;;;;;;5202878;28;20186;-47
2023/04/10 04:10:23;;;;;;;43.47;23.60;;;4.20;99.90;;;;;;5202851;28;20481;-47
2023/04/10 04:12:54;;;;;;;34.30;21.07;;;4.20;99.90;;;;;;5201315;28;20200;-46
2023/04/10 04:15:24;;;;;;;44.40;21.30;;;4.10;99.90;;;;;;5199759;28;20191;-47
2023/04/10 04:17:56;;;;;;;40.20;21.97;;;4.20;99.90;;;;;;5201700;28;20181;-49
2023/04/10 04:20:27;;;;;;;35.17;20.57;;;4.20;99.90;;;;;;5205541;28;20173;-48
2023/04/10 04:22:58;;;;;;;36.43;21.40;;;4.10;99.90;;;;;;5204725;28;20458;-47
2023/04/10 04:25:28;;;;;;;42.27;22.83;;;4.10;99.90;;;;;;5206282;28;20195;-46
2023/04/10 04:28:00;;;;;;;45.63;22.67;;;4.10;99.90;;;;;;5203331;28;20184;-46
2023/04/10 04:30:30;;;;;;;39.63;22.27;;;4.20;99.90;;;;;;5202317;28;20182;-45
2023/04/10 04:33:02;;;;;;;37.47;20.30;;;4.20;99.90;;;;;;5201744;28;20987;-46
2023/04/10 04:35:33;;;;;;;43.83;22.67;;;4.20;99.90;;;;;;5215679;28;20177;-46
2023/04/10 04:38:03;;;;;;;53.13;22.57;;;4.20;99.90;;;;;;5204978;28;20439;-46
2023/04/10 04:40:34;;;;;;;37.63;23.23;;;4.30;99.90;;;;;;5197197;28;20236;-49
2023/04/10 04:43:05;;;;;;;39.47;20.93;;;4.30;99.90;;;;;;5203302;28;20303;-46
2023/04/10 04:45:35;;;;;;;38.73;20.10;;;4.30;99.90;;;;;;5205476;28;20185;-50
2023/04/10 04:48:06;;;;;;;33.60;20.23;;;4.30;99.90;;;;;;5207147;28;20182;-45
2023/04/10 04:50:39;;;;;;;32.87;19.23;;;4.40;99.90;;;;;;5202289;28;20188;-45
2023/04/10 04:53:10;;;;;;;39.63;20.80;;;4.40;99.90;;;;;;5207174;28;20279;-46
2023/04/10 04:55:41;;;;;;;34.33;19.10;;;4.50;99.90;;;;;;5202428;28;20568;-46
2023/04/10 04:58:11;;;;;;;37.23;19.97;;;4.50;99.90;;;;;;5201708;28;20176;-48
2023/04/10 05:00:42;;;;;;;34.43;20.70;;;4.60;99.90;;;;;;5201013;28;20196;-49
2023/04/10 05:03:12;;;;;;;34.37;19.77;;;4.70;99.90;;;;;;5237482;23;20255;-49
2023/04/10 05:05:43;;;;;;;35.20;19.87;;;5.00;99.90;;;;;;5221920;28;20298;-50
2023/04/10 05:08:14;;;;;;;38.00;18.60;;;5.30;99.90;;;;;;5220991;28;20664;-50
2023/04/10 05:10:45;;;;;;;25.77;16.93;;;6.20;99.90;;;;;;5222555;28;20228;-49
2023/04/10 05:13:16;;;;;;;27.43;16.20;;;6.90;99.90;;;;;;5221717;28;20472;-50
2023/04/10 05:15:48;;;;;;;25.03;14.67;;;7.40;99.90;;;;;;5215334;28;20265;-48
2023/04/10 05:18:22;;;;;;;26.80;14.30;;;8.20;99.90;;;;;;5221111;28;20194;-48
2023/04/10 05:20:53;;;;;;;24.50;14.93;;;9.10;99.90;;;;;;5219271;28;20435;-50
2023/04/10 05:23:23;;;;;;;24.90;15.00;;;9.60;99.90;;;;;;5222573;28;20457;-50
2023/04/10 05:25:54;;;;;;;19.83;13.73;;;9.70;99.90;;;;;;5220868;28;20183;-50
2023/04/10 05:28:25;;;;;;;25.80;13.20;;;9.90;99.90;;;;;;5218682;28;20298;-49
2023/04/10 05:30:55;;;;;;;29.70;13.60;;;10.00;99.90;;;;;;5221487;28;20233;-50
2023/04/10 05:33:26;;;;;;;22.77;13.53;;;10.00;99.90;;;;;;5221439;28;20207;-50
2023/04/10 05:35:56;;;;;;;22.73;14.20;;;9.80;99.90;;;;;;5226413;28;20179;-49
2023/04/10 05:38:27;;;;;;;22.33;13.37;;;9.70;99.90;;;;;;5221622;28;20255;-50
2023/04/10 05:40:58;;;;;;;20.50;13.33;;;10.20;99.90;;;;;;5217276;28;20266;-48
2023/04/10 05:43:28;;;;;;;21.73;12.73;;;10.90;99.90;;;;;;5221522;28;20599;-48
2023/04/10 05:45:59;;;;;;;22.37;13.07;;;11.30;99.90;;;;;;5222735;28;20179;-49
2023/04/10 05:48:30;;;;;;;19.67;11.97;;;11.60;99.90;;;;;;5205226;28;20260;-49
2023/04/10 05:51:00;;;;;;;18.53;12.60;;;12.10;99.90;;;;;;5224758;28;20183;-50
2023/04/10 05:53:31;;;;;;;24.90;12.57;;;13.10;99.90;;;;;;5223640;28;20203;-50
2023/04/10 05:56:01;;;;;;;17.87;12.03;;;14.20;99.80;;;;;;5219968;28;20191;-48
2023/04/10 05:58:32;;;;;;;25.17;12.13;;;15.00;93.20;;;;;;5220009;28;20274;-48
2023/04/10 06:01:03;;;;;;;19.30;12.47;;;15.50;87.50;;;;;;5219339;28;20202;-48
2023/04/10 06:03:34;;;;;;;20.00;11.63;;;16.00;79.30;;;;;;5218646;28;20666;-49
2023/04/10 06:06:06;;;;;;;26.53;12.07;;;16.30;73.40;;;;;;5219425;28;20241;-49
2023/04/10 06:08:36;;;;;;;24.47;12.37;;;16.60;71.10;;;;;;5222351;28;20514;-49
2023/04/10 06:11:07;;;;;;;23.20;12.80;;;17.40;68.50;;;;;;5222011;28;20433;-50
2023/04/10 06:13:38;;;;;;;19.93;12.07;;;18.50;61.00;;;;;;5219950;28;20298;-50
2023/04/10 06:16:08;;;;;;;19.50;12.17;;;19.00;56.70;;;;;;5241393;28;20175;-50
2023/04/10 06:18:40;;;;;;;17.50;12.20;;;19.10;55.90;;;;;;5227028;28;20185;-51
2023/04/10 06:21:12;;;;;;;17.80;11.53;;;18.80;55.40;;;;;;5225861;28;20246;-50
2023/04/10 06:23:42;;;;;;;29.47;12.87;;;19.20;54.90;;;;;;5228379;28;21103;-50
2023/04/10 06:26:13;;;;;;;33.17;12.40;;;19.40;53.70;;;;;;5225726;28;20524;-49
2023/04/10 06:28:44;;;;;;;23.77;13.83;;;19.60;52.90;;;;;;5222964;28;20542;-50
2023/04/10 06:31:17;;;;;;;24.70;12.97;;;19.50;52.00;;;;;;5224567;28;20191;-50
2023/04/10 06:33:50;;;;;;;18.10;10.73;;;20.10;52.10;;;;;;5223177;28;20796;-50
2023/04/10 06:36:21;;;;;;;17.67;11.50;;;20.90;50.30;;;;;;5224929;28;20429;-51
2023/04/10 06:38:51;;;;;;;19.93;12.50;;;21.40;48.60;;;;;;5222954;28;20495;-50
2023/04/10 06:41:22;;;;;;;18.60;12.50;;;21.40;47.40;;;;;;5220442;28;20194;-49
2023/04/10 06:43:52;;;;;;;21.13;12.70;;;20.50;48.10;;;;;;5218073;28;20198;-54
2023/04/10 06:46:23;;;;;;;25.13;13.67;;;19.70;49.30;;;;;;5207185;28;20199;-50
2023/04/10 06:48:54;;;;;;;18.20;12.90;;;18.70;51.70;;;;;;5221230;28;20190;-51
2023/04/10 06:51:24;;;;;;;26.20;15.27;;;18.70;52.40;;;;;;5221039;28;20183;-49
2023/04/10 06:53:55;;;;;;;22.47;14.20;;;18.50;52.50;;;;;;5221140;28;20210;-50
2023/04/10 06:56:26;;;;;;;22.43;13.03;;;18.60;53.70;;;;;;5223253;28;20613;-48
2023/04/10 06:58:56;;;;;;;28.53;16.00;;;19.00;52.40;;;;;;5223653;28;20175;-51
2023/04/10 07:01:27;;;;;;;23.10;14.87;;;19.30;52.20;;;;;;5222834;28;20210;-51
2023/04/10 07:03:57;;;;;;;23.90;15.67;;;19.50;52.50;;;;;;5219660;28;20646;-53
2023/04/10 07:06:28;;;;;;;26.90;14.57;;;19.90;51.40;;;;;;5221868;28;20179;-49
2023/04/10 07:08:59;;;;;;;24.80;14.33;;;19.70;50.20;;;;;;5224184;28;20183;-51
2023/04/10 07:11:29;;;;;;;25.30;15.47;;;19.70;51.70;;;;;;5222901;28;20531;-50
2023/04/10 07:14:00;;;;;;;25.90;15.60;;;19.90;50.80;;;;;;5224346;28;20760;-52
2023/04/10 07:16:31;;;;;;;31.33;18.30;;;20.20;50.50;;;;;;5220550;28;20288;-51
2023/04/10 07:19:02;;;;;;;40.00;21.40;;;21.10;49.60;;;;;;5214653;28;20197;-50
2023/04/10 07:21:33;;;;;;;33.00;21.10;;;22.50;47.10;;;;;;5217363;28;20949;-51
2023/04/10 07:24:04;;;;;;;29.30;17.87;;;23.80;45.90;;;;;;5219430;28;20429;-50
2023/04/10 07:26:34;;;;;;;28.13;19.10;;;25.00;42.70;;;;;;5218893;28;20233;-51
2023/04/10 07:29:05;;;;;;;34.27;20.73;;;25.10;40.70;;;;;;5210932;28;20616;-53
2023/04/10 07:31:35;;;;;;;34.70;19.50;;;23.80;41.80;;;;;;5199637;28;20187;-51
2023/04/10 07:34:06;;;;;;;30.63;18.47;;;23.30;43.90;;;;;;5210859;28;20619;-50
2023/04/10 07:36:37;;;;;;;28.20;18.63;;;23.30;43.30;;;;;;5209036;28;20179;-50
2023/04/10 07:39:08;;;;;;;33.90;18.83;;;23.40;42.90;;;;;;5220533;28;20673;-50
2023/04/10 07:41:39;;;;;;;26.90;18.70;;;23.40;42.70;;;;;;5220618;28;20197;-51
2023/04/10 07:44:10;;;;;;;30.87;18.70;;;23.30;41.70;;;;;;5219217;28;20186;-50
2023/04/10 07:46:40;;;;;;;35.57;19.43;;;24.10;41.90;;;;;;5217423;28;20441;-52
2023/04/10 07:49:11;;;;;;;36.73;19.30;;;24.50;41.40;;;;;;5217787;28;20438;-52
2023/04/10 07:51:41;;;;;;;26.53;17.17;;;25.30;40.20;;;;;;5221577;28;20526;-51
2023/04/10 07:54:12;;;;;;;34.10;19.27;;;25.70;40.20;;;;;;5221967;28;20252;-50
2023/04/10 07:56:43;;;;;;;33.37;19.33;;;26.00;38.60;;;;;;5219718;28;20182;-50
2023/04/10 07:59:13;;;;;;;22.70;16.10;;;26.30;38.30;;;;;;5216284;28;20167;-52
2023/04/10 08:01:44;;;;;;;25.33;17.10;;;26.00;38.80;;;;;;5213413;28;20186;-50
2023/04/10 08:04:14;;;;;;;29.03;19.33;;;26.00;37.90;;;;;;5217620;28;20692;-51
2023/04/10 08:06:45;;;;;;;25.50;16.07;;;26.00;37.70;;;;;;5208359;28;20202;-50
2023/04/10 08:09:16;;;;;;;33.53;19.07;;;25.70;39.10;;;;;;5217601;28;20278;-51
2023/04/10 08:11:46;;;;;;;30.03;19.00;;;25.90;38.20;;;;;;5216414;28;20294;-48
2023/04/10 08:14:17;;;;;;;29.50;19.17;;;25.80;38.20;;;;;;5219007;28;20246;-48
2023/04/10 08:16:47;;;;;;;33.37;19.60;;;25.80;38.50;;;;;;5221625;28;20187;-47
2023/04/10 08:19:18;;;;;;;32.00;20.23;;;25.40;38.40;;;;;;5225287;28;20246;-49
2023/04/10 08:21:49;;;;;;;42.40;18.80;;;25.30;38.70;;;;;;5220637;28;20223;-49
2023/04/10 08:24:21;;;;;;;31.30;19.50;;;25.00;39.40;;;;;;5225433;28;20225;-50
2023/04/10 08:26:52;;;;;;;32.53;20.23;;;24.50;40.10;;;;;;5225650;28;20229;-47
2023/04/10 08:29:22;;;;;;;27.00;19.07;;;23.30;41.30;;;;;;5225338;28;20479;-45
2023/04/10 08:31:54;;;;;;;32.20;20.93;;;22.40;43.30;;;;;;5227315;28;20199;-54
2023/04/10 08:34:25;;;;;;;27.30;18.70;;;21.70;44.10;;;;;;5224743;28;20202;-55
2023/04/10 08:36:56;;;;;;;31.27;20.23;;;20.90;46.10;;;;;;5224738;28;20794;-54
2023/04/10 08:39:27;;;;;;;33.23;19.93;;;20.70;46.50;;;;;;5219027;28;20591;-55
2023/04/10 08:41:58;;;;;;;32.87;21.13;;;20.00;47.30;;;;;;5217915;28;20443;-54
2023/04/10 08:44:29;;;;;;;29.53;19.50;;;19.50;48.50;;;;;;5217399;28;20191;-52
2023/04/10 08:47:00;;;;;;;38.87;20.03;;;19.20;49.30;;;;;;5208349;28;20184;-53
2023/04/10 08:49:40;;;;;;;36.80;22.60;;;18.30;50.70;;;;;;5217055;28;20712;-55
2023/04/10 08:52:20;;;;;;;37.23;22.27;;;17.10;52.20;;;;;;5217096;28;20461;-54
2023/04/10 08:54:54;;;;;;;38.17;22.77;;;16.50;54.70;;;;;;5213234;28;20468;-52
2023/04/10 08:57:26;;;;;;;37.03;23.73;;;16.00;57.00;;;;;;5224179;28;20425;-52
2023/04/10 08:59:58;;;;;;;37.43;22.30;;;15.90;58.40;;;;;;5218712;28;20433;-54
2023/04/10 09:02:28;;;;;;;39.07;21.00;;;15.90;59.50;;;;;;5216816;28;20465;-54
2023/04/10 09:05:02;;;;;;;36.57;20.20;;;15.80;59.60;;;;;;5221442;28;20438;-54
2023/04/10 09:07:33;;;;;;;27.97;18.70;;;15.70;60.90;;;;;;5222748;28;20273;-54
2023/04/10 09:10:06;;;;;;;32.67;19.50;;;15.70;60.00;;;;;;5215588;28;21021;-54
2023/04/10 09:12:45;;;;;;;31.77;19.03;;;15.70;60.50;;;;;;5214256;28;20207;-54
2023/04/10 09:15:15;;;;;;;41.33;21.40;;;15.30;59.60;;;;;;5218623;28;20823;-53
2023/04/10 09:17:57;;;;;;;32.63;20.20;;;15.40;62.10;;;;;;5219466;28;20452;-55
2023/04/10 09:20:30;;;;;;;31.63;17.07;;;15.50;64.30;;;;;;5220131;28;20179;-53
2023/04/10 09:23:02;;;;;;;30.33;18.70;;;15.60;63.10;;;;;;5221465;28;20464;-54
2023/04/10 09:25:35;;;;;;;34.23;18.87;;;15.20;63.80;;;;;;5225382;28;20535;-53
2023/04/10 09:28:07;;;;;;;29.30;17.87;;;14.80;68.10;;;;;;5216722;28;20932;-53
2023/04/10 09:30:40;;;;;;;24.83;15.80;;;14.70;71.00;;;;;;5222089;28;20453;-53
2023/04/10 09:33:29;;;;;;;22.27;16.00;;;14.80;70.40;;;;;;5220192;28;20515;-55
2023/04/10 09:35:59;;;;;;;29.70;16.40;;;15.10;71.20;;;;;;5220710;28;20659;-51
2023/04/10 09:38:30;;;;;;;29.40;16.80;;;15.40;72.00;;;;;;5219533;28;21047;-53
2023/04/10 09:41:08;;;;;;;27.37;16.07;;;15.60;70.30;;;;;;5218596;28;20252;-53
2023/04/10 09:43:38;;;;;;;25.83;14.47;;;15.80;69.70;;;;;;5215252;28;20773;-54
2023/04/10 09:46:09;;;;;;;26.73;16.90;;;15.80;68.00;;;;;;5220452;28;20519;-54
2023/04/10 09:48:55;;;;;;;22.80;15.40;;;16.00;65.90;;;;;;5225313;28;20210;-52
2023/04/10 09:51:34;;;;;;;26.37;15.77;;;15.70;67.30;;;;;;5222534;28;20692;-56
2023/04/10 09:54:05;;;;;;;27.77;15.17;;;15.20;70.30;;;;;;5219519;28;20957;-52
2023/04/10 09:56:38;;;;;;;25.20;14.13;;;14.80;73.20;;;;;;5223392;28;20433;-56
2023/04/10 09:59:10;;;;;;;19.33;12.60;;;14.80;73.70;;;;;;5224021;28;20444;-53
2023/04/10 10:01:42;;;;;;;23.63;13.63;;;15.00;75.20;;;;;;5219754;28;20444;-53
2023/04/10 10:04:16;;;;;;;25.37;13.60;;;15.10;75.20;;;;;;5223919;28;20450;-54
2023/04/10 10:06:47;;;;;;;21.60;14.90;;;15.20;74.80;;;;;;5225776;28;20445;-54
2023/04/10 10:09:17;;;;;;;24.10;14.40;;;15.00;75.20;;;;;;5224292;28;20443;-52
2023/04/10 10:11:50;;;;;;;27.60;14.23;;;14.80;77.20;;;;;;5225891;28;20777;-51
2023/04/10 10:14:22;;;;;;;22.90;13.93;;;14.50;78.00;;;;;;5224765;28;20203;-55
2023/04/10 10:16:55;;;;;;;23.77;12.57;;;14.30;82.20;;;;;;5223087;28;20445;-52
2023/04/10 10:19:41;;;;;;;26.03;13.53;;;14.30;82.70;;;;;;5223441;28;20875;-53
2023/04/10 10:22:13;;;;;;;25.07;14.40;;;14.30;84.80;;;;;;5225301;28;20542;-53
2023/04/10 10:24:46;;;;;;;21.93;12.83;;;14.30;84.90;;;;;;5220245;28;20465;-52
2023/04/10 10:27:18;;;;;;;19.83;13.80;;;14.40;85.60;;;;;;5210694;28;20559;-53
2023/04/10 10:29:52;;;;;;;23.80;14.17;;;14.50;87.30;;;;;;5215000;28;20536;-53
2023/04/10 10:32:24;;;;;;;27.33;13.57;;;14.60;87.10;;;;;;5220318;28;20465;-53
2023/04/10 10:34:56;;;;;;;27.10;15.00;;;14.50;86.20;;;;;;5218336;28;20497;-53
2023/04/10 10:37:28;;;;;;;23.93;13.87;;;14.70;87.60;;;;;;5219799;28;20441;-54
2023/04/10 10:40:11;;;;;;;28.00;12.80;;;15.00;86.40;;;;;;5217250;28;20513;-54
2023/04/10 10:42:49;;;;;;;24.30;13.57;;;15.20;84.50;;;;;;5213739;28;20819;-56
2023/04/10 10:45:31;;;;;;;22.30;13.27;;;15.20;82.00;;;;;;5215470;28;20441;-53
2023/04/10 10:48:02;;;;;;;17.00;10.70;;;15.20;82.60;;;;;;5220321;28;20528;-54
2023/04/10 10:50:55;;;;;;;21.60;12.27;;;15.40;82.20;;;;;;5217984;28;21029;-55
2023/04/10 10:53:43;;;;;;;17.50;11.10;;;15.40;80.20;;;;;;5221430;28;20261;-54
2023/04/10 10:56:19;;;;;;;17.23;10.73;;;15.50;79.30;;;;;;5222420;28;20480;-54
2023/04/10 10:58:53;;;;;;;16.20;11.10;;;15.80;76.30;;;;;;5224451;28;20436;-54
2023/04/10 11:01:23;;;;;;;20.70;11.60;;;16.10;74.90;;;;;;5224390;28;20557;-53
2023/04/10 11:03:54;;;;;;;18.10;11.40;;;16.30;74.80;;;;;;5219730;23;20502;-49
2023/04/10 11:06:55;;;;;;;14.00;9.63;;;16.10;73.20;;;;;;5193231;28;20639;-48
2023/04/10 11:09:48;;;;;;;12.90;9.10;;;16.00;72.80;;;;;;5188072;28;20924;-49
2023/04/10 11:12:23;;;;;;;13.53;8.53;;;15.70;71.00;;;;;;5201464;28;20458;-49
2023/04/10 11:14:59;;;;;;;21.20;8.83;;;15.60;72.60;;;;;;5201539;28;20462;-51
2023/04/10 11:17:50;;;;;;;15.63;9.17;;;15.60;72.80;;;;;;5201715;28;20438;-50
2023/04/10 11:20:24;;;;;;;13.70;8.97;;;15.80;72.40;;;;;;5204728;28;20425;-50
2023/04/10 11:23:11;;;;;;;13.10;8.10;;;15.70;71.10;;;;;;5202320;28;20445;-48
2023/04/10 11:25:50;;;;;;;14.60;8.30;;;15.50;73.40;;;;;;5200016;28;20480;-48
2023/04/10 11:28:33;;;;;;;11.90;8.30;;;15.50;74.30;;;;;;5197638;28;20611;-49
2023/04/10 11:31:18;;;;;;;11.00;7.33;;;15.50;73.50;;;;;;5192767;28;21034;-49
2023/04/10 11:34:00;;;;;;;10.77;7.20;;;15.80;73.60;;;;;;5199574;28;20457;-51
2023/04/10 11:36:38;;;;;;;13.90;8.50;;;16.00;72.30;;;;;;5203292;28;20511;-48
2023/04/10 11:39:20;;;;;;;14.33;7.80;;;16.00;70.60;;;;;;5195732;28;20439;-48
2023/04/10 11:41:52;;;;;;;11.73;8.23;;;15.80;70.80;;;;;;5201476;28;20465;-49
2023/04/10 11:44:26;;;;;;;20.83;9.00;;;15.70;72.20;;;;;;5198169;28;20928;-49
2023/04/10 11:46:57;;;;;;;13.27;9.00;;;15.80;73.50;;;;;;5196858;28;20443;-48
2023/04/10 11:49:33;;;;;;;12.47;8.80;;;15.90;73.00;;;;;;5206314;28;20576;-50
2023/04/10 11:52:04;;;;;;;9.40;7.10;;;15.80;70.90;;;;;;5204894;28;20183;-48
2023/04/10 11:54:36;;;;;;;9.77;7.17;;;15.90;69.60;;;;;;5214590;28;20493;-48
2023/04/10 11:57:08;;;;;;;11.23;7.23;;;16.00;69.40;;;;;;5197241;28;20292;-51
2023/04/10 11:59:39;;;;;;;13.13;7.00;;;15.90;67.70;;;;;;5195088;28;20514;-49
2023/04/10 12:02:14;;;;;;;9.40;6.47;;;15.80;66.40;;;;;;5198150;28;20473;-50
2023/04/10 12:04:56;;;;;;;10.93;7.90;;;15.80;66.60;;;;;;5204112;28;20876;-50
2023/04/10 12:07:28;;;;;;;9.80;6.70;;;15.90;67.00;;;;;;5193476;28;20528;-52
2023/04/10 12:09:58;;;;;;;9.80;6.70;;;16.10;66.60;;;;;;5200362;28;20861;-50
2023/04/10 12:12:36;;;;;;;8.10;7.30;;;16.20;65.00;;;;;;5198111;28;20454;-49
2023/04/10 12:15:27;;;;;;;9.60;7.50;;;16.30;65.70;;;;;;5193450;28;20203;-50
2023/04/10 12:17:58;;;;;;;12.53;6.90;;;16.20;65.90;;;;;;5197141;28;20787;-50
2023/04/10 12:20:29;;;;;;;10.97;6.90;;;16.30;65.30;;;;;;5199554;28;20438;-49
2023/04/10 12:23:01;;;;;;;9.97;7.03;;;16.20;63.10;;;;;;5200931;28;20265;-53
2023/04/10 12:25:34;;;;;;;12.30;7.27;;;16.00;62.80;;;;;;5203119;28;20342;-49
2023/04/10 12:28:05;;;;;;;10.00;5.93;;;15.90;64.10;;;;;;5199283;28;20549;-50
2023/04/10 12:30:35;;;;;;;7.87;5.87;;;15.90;63.30;;;;;;5197692;28;20458;-54
2023/04/10 12:33:06;;;;;;;8.87;6.53;;;15.90;63.20;;;;;;5213731;28;20488;-50
2023/04/10 12:35:38;;;;;;;11.20;6.63;;;15.90;63.20;;;;;;5197461;28;20183;-52
2023/04/10 12:38:09;;;;;;;6.30;5.53;;;15.90;62.70;;;;;;5202937;28;20274;-50
2023/04/10 12:40:57;;;;;;;14.90;6.87;;;15.90;62.60;;;;;;5202074;28;20466;-49
2023/04/10 12:43:41;;;;;;;9.87;6.20;;;16.10;62.00;;;;;;5194632;28;20299;-50
2023/04/10 12:46:26;;;;;;;7.93;6.23;;;16.20;59.80;;;;;;5195243;28;20462;-51
2023/04/10 12:49:12;;;;;;;7.83;6.00;;;16.50;59.70;;;;;;5207626;28;20865;-51
2023/04/10 12:51:42;;;;;;;8.03;7.20;;;16.60;60.10;;;;;;5193707;28;20484;-51
2023/04/10 12:54:35;;;;;;;8.67;6.97;;;16.50;59.10;;;;;;5196069;28;20577;-51
2023/04/10 12:57:05;;;;;;;9.97;6.03;;;16.40;58.90;;;;;;5194548;28;20184;-50
2023/04/10 12:59:36;;;;;;;10.37;5.60;;;16.40;58.40;;;;;;5199391;28;20501;-51
2023/04/10 13:02:07;;;;;;;6.23;5.63;;;16.60;57.50;;;;;;5202743;28;20598;-50
2023/04/10 13:04:37;;;;;;;6.77;5.23;;;16.70;57.30;;;;;;5197486;28;20289;-52